createdAt,value
2023-04-15T00:01:06.725Z,5.75
2023-04-15T00:03:34.487Z,5.60
2023-04-15T00:06:02.469Z,5.35
2023-04-15T00:08:30.172Z,5.50
2023-04-15T00:10:59.422Z,5.82
2023-04-15T00:13:26.487Z,5.88
2023-04-15T00:15:53.455Z,5.43
2023-04-15T00:18:20.569Z,5.55
2023-04-15T00:20:47.774Z,5.57
2023-04-15T00:23:14.835Z,5.60
2023-04-15T00:25:41.949Z,6.13
2023-04-15T00:28:09.430Z,5.68
2023-04-15T00:30:36.475Z,5.88
2023-04-15T00:33:03.882Z,5.72
2023-04-15T00:35:34.285Z,6.32
2023-04-15T00:38:01.341Z,6.18
2023-04-15T00:40:28.392Z,6.15
2023-04-15T00:42:55.452Z,6.15
2023-04-15T00:45:23.374Z,5.85
2023-04-15T00:47:52.025Z,6.20
2023-04-15T00:50:19.180Z,6.20
2023-04-15T00:52:46.151Z,5.78
2023-04-15T00:55:13.760Z,5.70
2023-04-15T00:57:41.286Z,6.45
2023-04-15T01:00:09.751Z,6.22
2023-04-15T01:02:37.564Z,6.53
2023-04-15T01:05:05.483Z,6.63
2023-04-15T01:07:32.729Z,6.47
2023-04-15T01:09:59.989Z,6.47
2023-04-15T01:12:28.178Z,6.40
2023-04-15T01:14:56.715Z,6.70
2023-04-15T01:17:25.339Z,7.20
2023-04-15T01:19:52.959Z,6.93
2023-04-15T01:22:20.248Z,7.03
2023-04-15T01:25:11.763Z,6.95
2023-04-15T01:27:42.270Z,6.60
2023-04-15T01:30:11.521Z,6.82
2023-04-15T01:32:39.185Z,7.18
2023-04-15T01:35:06.698Z,7.07
2023-04-15T01:37:34.166Z,7.25
2023-04-15T01:40:01.276Z,7.95
2023-04-15T01:42:28.392Z,8.32
2023-04-15T01:44:55.806Z,7.55
2023-04-15T01:47:23.237Z,8.05
2023-04-15T01:49:50.262Z,7.60
2023-04-15T01:52:17.456Z,8.43
2023-04-15T01:54:44.770Z,8.70
2023-04-15T01:57:12.816Z,8.90
2023-04-15T01:59:39.851Z,9.40
2023-04-15T02:02:07.001Z,9.40
2023-04-15T02:04:34.193Z,8.57
2023-04-15T02:07:01.729Z,8.20
2023-04-15T02:09:29.266Z,8.45
2023-04-15T02:11:56.959Z,8.13
2023-04-15T02:14:24.605Z,8.88
2023-04-15T02:16:51.765Z,8.88
2023-04-15T02:19:18.917Z,9.15
2023-04-15T02:21:45.928Z,10.10
2023-04-15T02:24:12.966Z,9.90
2023-04-15T02:26:41.583Z,10.00
2023-04-15T02:29:08.591Z,10.27
2023-04-15T02:31:40.331Z,10.95
2023-04-15T02:34:08.234Z,9.98
2023-04-15T02:36:35.331Z,9.80
2023-04-15T02:39:03.221Z,10.20
2023-04-15T02:41:30.626Z,10.90
2023-04-15T02:43:58.463Z,10.63
2023-04-15T02:46:27.534Z,10.75
2023-04-15T02:48:54.732Z,9.63
2023-04-15T02:51:23.792Z,10.40
2023-04-15T02:53:50.966Z,10.25
2023-04-15T02:56:19.850Z,11.20
2023-04-15T02:58:50.578Z,10.43
2023-04-15T03:01:17.918Z,11.20
2023-04-15T03:03:46.920Z,11.05
2023-04-15T03:06:14.450Z,11.20
2023-04-15T03:08:41.630Z,10.90
2023-04-15T03:11:08.880Z,11.15
2023-04-15T03:13:37.080Z,11.48
2023-04-15T03:16:11.320Z,11.38
2023-04-15T03:18:38.635Z,12.85
2023-04-15T03:21:06.264Z,12.40
2023-04-15T03:23:35.931Z,13.00
2023-04-15T03:26:04.207Z,14.07
2023-04-15T03:28:33.127Z,13.52
2023-04-15T03:31:01.033Z,12.30
2023-04-15T03:33:28.494Z,13.00
2023-04-15T03:35:55.600Z,13.88
2023-04-15T03:38:22.592Z,12.40
2023-04-15T03:40:49.572Z,14.10
2023-04-15T03:43:17.087Z,13.68
2023-04-15T03:45:44.233Z,12.88
2023-04-15T03:48:17.858Z,13.32
2023-04-15T03:50:46.278Z,12.35
2023-04-15T03:53:13.253Z,12.70
2023-04-15T03:55:40.385Z,11.93
2023-04-15T03:58:07.644Z,12.95
2023-04-15T04:00:34.627Z,12.52
2023-04-15T04:03:01.889Z,12.02
2023-04-15T04:05:29.454Z,13.02
2023-04-15T04:07:56.462Z,13.75
2023-04-15T04:10:23.476Z,13.32
2023-04-15T04:12:50.416Z,13.52
2023-04-15T04:15:17.538Z,13.65
2023-04-15T04:17:44.632Z,13.30
2023-04-15T04:20:12.423Z,13.10
2023-04-15T04:22:40.732Z,13.27
2023-04-15T04:25:10.153Z,13.02
2023-04-15T04:27:37.783Z,13.18
2023-04-15T04:30:06.819Z,13.05
2023-04-15T04:32:34.131Z,13.57
2023-04-15T04:35:01.570Z,14.15
2023-04-15T04:37:28.543Z,13.82
2023-04-15T04:39:56.182Z,14.80
2023-04-15T04:42:23.256Z,14.25
2023-04-15T04:44:50.257Z,14.65
2023-04-15T04:47:17.284Z,14.00
2023-04-15T04:49:44.363Z,14.07
2023-04-15T04:52:11.675Z,13.10
2023-04-15T04:54:38.805Z,12.50
2023-04-15T04:57:07.769Z,13.57
2023-04-15T04:59:34.762Z,14.23
2023-04-15T05:02:01.980Z,15.32
2023-04-15T05:04:29.223Z,15.45
2023-04-15T05:06:56.375Z,16.05
2023-04-15T05:09:23.391Z,14.65
2023-04-15T05:11:50.477Z,15.52
2023-04-15T05:14:17.481Z,15.70
2023-04-15T05:16:44.543Z,15.25
2023-04-15T05:19:11.590Z,15.98
2023-04-15T05:21:39.584Z,16.15
2023-04-15T05:24:07.082Z,15.65
2023-04-15T05:26:34.108Z,17.60
2023-04-15T05:29:01.640Z,16.98
2023-04-15T05:31:29.097Z,17.63
2023-04-15T05:33:56.277Z,17.08
2023-04-15T05:36:23.214Z,17.48
2023-04-15T05:38:50.183Z,16.75
2023-04-15T05:41:19.761Z,18.15
2023-04-15T05:43:47.156Z,19.52
2023-04-15T05:46:14.229Z,18.58
2023-04-15T05:48:41.629Z,19.30
2023-04-15T05:51:09.453Z,19.60
2023-04-15T05:53:36.923Z,19.88
2023-04-15T05:56:04.232Z,19.08
2023-04-15T05:58:31.438Z,19.52
2023-04-15T06:00:58.685Z,18.95
2023-04-15T06:03:25.879Z,19.17
2023-04-15T06:05:53.155Z,18.73
2023-04-15T06:08:20.604Z,18.10
2023-04-15T06:10:47.763Z,18.15
2023-04-15T06:13:14.874Z,18.40
2023-04-15T06:15:42.250Z,18.23
2023-04-15T06:18:09.322Z,18.40
2023-04-15T06:20:36.717Z,17.35
2023-04-15T06:23:03.858Z,17.83
2023-04-15T06:25:30.844Z,17.67
2023-04-15T06:27:57.777Z,18.25
2023-04-15T06:30:24.753Z,17.60
2023-04-15T06:32:51.848Z,17.08
2023-04-15T06:35:19.067Z,17.65
2023-04-15T06:37:46.288Z,16.70
2023-04-15T06:40:13.852Z,16.52
2023-04-15T06:42:42.151Z,17.20
2023-04-15T06:45:09.836Z,17.08
2023-04-15T06:47:36.984Z,16.08
2023-04-15T06:50:04.524Z,17.48
2023-04-15T06:52:31.917Z,16.05
2023-04-15T06:54:59.729Z,16.25
2023-04-15T06:57:26.940Z,16.38
2023-04-15T06:59:54.720Z,16.48
2023-04-15T07:02:22.167Z,16.33
2023-04-15T07:04:49.226Z,17.02
2023-04-15T07:07:17.508Z,15.95
2023-04-15T07:09:44.900Z,15.05
2023-04-15T07:12:11.989Z,15.57
2023-04-15T07:14:39.065Z,14.70
2023-04-15T07:17:06.752Z,15.15
2023-04-15T07:19:33.973Z,14.32
2023-04-15T07:22:01.455Z,14.13
2023-04-15T07:24:28.978Z,14.25
2023-04-15T07:26:59.556Z,13.95
2023-04-15T07:29:28.072Z,13.55
2023-04-15T07:31:57.069Z,14.20
2023-04-15T07:34:24.540Z,13.40
2023-04-15T07:36:51.932Z,13.50
2023-04-15T07:39:19.139Z,12.77
2023-04-15T07:41:46.563Z,12.15
2023-04-15T07:44:13.756Z,12.27
2023-04-15T07:46:41.166Z,11.57
2023-04-15T07:49:08.321Z,11.70
2023-04-15T07:51:35.323Z,11.38
2023-04-15T07:54:03.138Z,11.00
2023-04-15T07:56:30.203Z,10.82
2023-04-15T07:58:57.183Z,10.02
2023-04-15T08:01:24.171Z,9.88
2023-04-15T08:03:51.582Z,9.07
2023-04-15T08:06:18.769Z,8.32
2023-04-15T08:08:45.837Z,7.78
2023-04-15T08:11:13.625Z,7.65
2023-04-15T08:13:40.905Z,8.13
2023-04-15T08:16:19.355Z,7.22
2023-04-15T08:18:48.739Z,7.35
2023-04-15T08:21:17.833Z,7.47
2023-04-15T08:23:46.408Z,7.32
2023-04-15T08:26:14.271Z,6.80
2023-04-15T08:28:45.520Z,7.47
2023-04-15T08:31:14.853Z,6.70
2023-04-15T08:33:42.635Z,6.72
2023-04-15T08:36:10.092Z,7.18
2023-04-15T08:38:37.606Z,6.38
2023-04-15T08:41:13.419Z,6.40
2023-04-15T08:44:06.618Z,5.65
2023-04-15T08:46:34.832Z,5.35
2023-04-15T08:49:05.197Z,4.43
2023-04-15T08:51:33.926Z,5.55
2023-04-15T08:54:02.467Z,5.22
2023-04-15T08:56:34.390Z,5.00
2023-04-15T08:59:02.464Z,5.30
2023-04-15T09:01:30.085Z,6.82
2023-04-15T09:03:57.695Z,5.13
2023-04-15T09:06:25.709Z,4.40
2023-04-15T09:08:53.066Z,4.53
2023-04-15T09:11:22.133Z,4.88
2023-04-15T09:13:49.882Z,5.85
2023-04-15T09:16:17.169Z,3.97
2023-04-15T09:18:44.338Z,4.28
2023-04-15T09:21:14.754Z,4.95
2023-04-15T09:23:58.153Z,6.22
2023-04-15T09:26:40.371Z,4.50
2023-04-15T09:29:14.648Z,4.30
2023-04-15T09:31:43.450Z,4.10
2023-04-15T09:34:10.693Z,5.10
2023-04-15T09:36:53.924Z,4.72
2023-04-15T09:39:21.506Z,4.70
2023-04-15T09:42:07.009Z,4.57
2023-04-15T09:44:34.499Z,3.60
2023-04-15T09:47:02.134Z,3.25
2023-04-15T09:49:29.248Z,2.80
2023-04-15T09:52:06.293Z,2.70
2023-04-15T09:54:38.724Z,2.10
2023-04-15T09:57:07.945Z,2.00
2023-04-15T09:59:34.968Z,2.00
2023-04-15T10:02:06.541Z,2.10
2023-04-15T10:04:40.757Z,2.10
2023-04-15T10:07:10.065Z,2.08
2023-04-15T10:09:39.771Z,1.80
2023-04-15T10:12:07.409Z,2.00
2023-04-15T10:14:38.941Z,2.03
2023-04-15T10:17:11.541Z,2.15
2023-04-15T10:19:40.504Z,2.10
2023-04-15T10:22:08.114Z,2.20
2023-04-15T10:24:35.360Z,2.40
2023-04-15T10:27:04.590Z,2.40
2023-04-15T10:29:31.758Z,1.88
2023-04-15T10:32:00.664Z,2.50
2023-04-15T10:34:28.208Z,2.13
2023-04-15T10:37:04.838Z,2.08
2023-04-15T10:39:34.932Z,2.20
2023-04-15T10:42:16.761Z,2.00
2023-04-15T10:44:49.670Z,2.00
2023-04-15T10:47:20.264Z,2.40
2023-04-15T10:49:57.132Z,1.95
2023-04-15T10:52:27.631Z,1.83
2023-04-15T10:55:16.389Z,2.13
2023-04-15T10:57:44.282Z,2.13
2023-04-15T11:00:16.468Z,2.38
2023-04-15T11:03:15.723Z,2.40
2023-04-15T11:05:42.773Z,1.70
2023-04-15T11:08:11.100Z,2.10
2023-04-15T11:10:37.993Z,2.55
2023-04-15T11:13:11.679Z,2.30
2023-04-15T11:15:41.094Z,1.98
2023-04-15T11:18:18.603Z,2.10
2023-04-15T11:20:50.734Z,1.85
2023-04-15T11:23:39.279Z,2.20
2023-04-15T11:26:15.346Z,2.10
2023-04-15T11:31:18.147Z,2.00
2023-04-15T11:33:58.978Z,2.53
2023-04-15T11:36:31.939Z,2.20
2023-04-15T11:39:00.238Z,2.20
2023-04-15T11:41:27.374Z,2.03
2023-04-15T11:43:54.413Z,2.00
2023-04-15T11:46:22.947Z,2.30
2023-04-15T11:48:50.224Z,2.50
2023-04-15T11:51:17.400Z,2.47
2023-04-15T11:53:49.465Z,2.38
2023-04-15T11:56:21.115Z,2.53
2023-04-15T11:58:52.728Z,2.65
2023-04-15T12:01:20.142Z,2.75
2023-04-15T12:03:49.019Z,3.10
2023-04-15T12:06:22.600Z,2.63
2023-04-15T12:08:55.897Z,2.80
2023-04-15T12:11:41.587Z,2.67
2023-04-15T12:14:32.004Z,2.73
2023-04-15T12:17:05.394Z,2.65
2023-04-15T12:19:41.708Z,2.58
2023-04-15T12:22:15.196Z,2.70
2023-04-15T12:24:44.399Z,2.50
2023-04-15T12:27:13.023Z,2.10
2023-04-15T12:29:43.157Z,2.00
2023-04-15T12:32:13.738Z,2.08
2023-04-15T12:34:52.090Z,1.90
2023-04-15T12:37:19.608Z,2.00
2023-04-15T12:39:49.525Z,1.83
2023-04-15T12:42:17.771Z,2.30
2023-04-15T12:44:44.865Z,2.40
2023-04-15T12:47:13.289Z,2.70
2023-04-15T12:49:41.134Z,2.50
2023-04-15T12:52:08.631Z,2.45
2023-04-15T12:54:36.252Z,2.88
2023-04-15T12:57:06.969Z,2.10
2023-04-15T12:59:35.396Z,2.42
2023-04-15T13:02:04.358Z,2.58
2023-04-15T13:04:32.149Z,2.42
2023-04-15T13:06:59.280Z,2.70
2023-04-15T13:09:26.408Z,2.53
2023-04-15T13:11:54.255Z,2.05
2023-04-15T13:14:21.719Z,2.10
2023-04-15T13:16:48.907Z,2.38
2023-04-15T13:19:16.340Z,2.30
2023-04-15T13:21:43.424Z,2.20
2023-04-15T13:24:10.595Z,2.10
2023-04-15T13:26:38.009Z,2.08
2023-04-15T13:29:05.380Z,2.45
2023-04-15T13:31:32.627Z,2.30
2023-04-15T13:33:59.753Z,2.53
2023-04-15T13:36:27.473Z,2.63
2023-04-15T13:38:55.589Z,2.00
2023-04-15T13:41:22.698Z,2.20
2023-04-15T13:43:49.710Z,2.58
2023-04-15T13:46:16.929Z,2.10
2023-04-15T13:48:44.020Z,2.10
2023-04-15T13:51:11.131Z,2.30
2023-04-15T13:53:39.621Z,2.30
2023-04-15T13:56:08.530Z,2.47
2023-04-15T13:58:37.404Z,2.13
2023-04-15T14:01:06.776Z,2.53
2023-04-15T14:03:36.794Z,2.13
2023-04-15T14:06:05.802Z,2.10
2023-04-15T14:08:32.948Z,2.00
2023-04-15T14:11:00.583Z,2.10
2023-04-15T14:13:27.754Z,1.80
2023-04-15T14:15:54.877Z,2.10
2023-04-15T14:18:22.005Z,2.05
2023-04-15T14:20:49.545Z,2.10
2023-04-15T14:23:16.733Z,2.05
2023-04-15T14:25:46.072Z,1.92
2023-04-15T14:28:14.812Z,1.90
2023-04-15T14:30:41.892Z,2.30
2023-04-15T14:33:08.941Z,2.40
2023-04-15T14:35:36.382Z,2.83
2023-04-15T14:38:04.323Z,1.95
2023-04-15T14:40:31.829Z,2.47
2023-04-15T14:42:58.792Z,2.15
2023-04-15T14:45:25.849Z,1.90
2023-04-15T14:47:53.610Z,2.30
2023-04-15T14:50:21.003Z,2.40
2023-04-15T14:52:48.205Z,2.30
2023-04-15T14:55:15.262Z,2.47
2023-04-15T14:57:43.061Z,2.80
2023-04-15T15:00:14.513Z,2.38
2023-04-15T15:02:43.916Z,2.58
2023-04-15T15:05:12.229Z,2.92
2023-04-15T15:07:41.080Z,2.67
2023-04-15T15:10:08.733Z,2.50
2023-04-15T15:12:36.046Z,2.45
2023-04-15T15:15:12.485Z,2.92
2023-04-15T15:17:43.217Z,2.50
2023-04-15T15:20:10.964Z,3.00
2023-04-15T15:22:38.024Z,2.72
2023-04-15T15:25:05.734Z,2.50
2023-04-15T15:27:32.850Z,2.67
2023-04-15T15:29:59.960Z,2.58
2023-04-15T15:32:27.101Z,2.80
2023-04-15T15:34:54.273Z,3.17
2023-04-15T15:37:21.411Z,2.55
2023-04-15T15:39:48.449Z,2.67
2023-04-15T15:42:15.412Z,3.03
2023-04-15T15:44:42.629Z,2.80
2023-04-15T15:47:09.816Z,3.50
2023-04-15T15:49:36.863Z,2.78
2023-04-15T15:52:04.034Z,3.05
2023-04-15T15:54:31.944Z,2.83
2023-04-15T15:56:59.066Z,2.50
2023-04-15T15:59:26.086Z,3.20
2023-04-15T16:01:53.642Z,2.80
2023-04-15T16:04:21.212Z,3.58
2023-04-15T16:06:48.694Z,3.67
2023-04-15T16:09:16.179Z,2.70
2023-04-15T16:11:44.600Z,3.17
2023-04-15T16:14:12.129Z,2.72
2023-04-15T16:16:39.749Z,3.20
2023-04-15T16:19:07.082Z,2.80
2023-04-15T16:21:34.792Z,3.17
2023-04-15T16:24:02.421Z,3.03
2023-04-15T16:26:29.472Z,3.40
2023-04-15T16:28:56.516Z,3.50
2023-04-15T16:31:23.631Z,3.60
2023-04-15T16:33:50.701Z,3.38
2023-04-15T16:36:17.679Z,3.65
2023-04-15T16:38:48.322Z,3.28
2023-04-15T16:41:16.231Z,3.80
2023-04-15T16:43:43.300Z,3.78
2023-04-15T16:46:10.494Z,3.88
2023-04-15T16:48:37.698Z,4.25
2023-04-15T16:51:05.243Z,5.05
2023-04-15T16:53:32.370Z,4.10
2023-04-15T16:55:59.900Z,4.38
2023-04-15T16:58:29.048Z,4.40
2023-04-15T17:00:56.434Z,5.15
2023-04-15T17:03:23.703Z,4.32
2023-04-15T17:05:51.007Z,5.60
2023-04-15T17:08:18.157Z,5.40
2023-04-15T17:10:45.761Z,5.75
2023-04-15T17:13:12.790Z,5.80
2023-04-15T17:15:40.700Z,5.97
2023-04-15T17:18:08.630Z,5.80
2023-04-15T17:20:36.551Z,5.85
2023-04-15T17:23:04.313Z,5.25
2023-04-15T17:25:31.429Z,5.93
2023-04-15T17:27:58.462Z,5.35
2023-04-15T17:30:25.523Z,5.57
2023-04-15T17:32:52.699Z,6.30
2023-04-15T17:35:20.048Z,5.45
2023-04-15T17:37:47.594Z,6.28
2023-04-15T17:40:14.902Z,5.85
2023-04-15T17:42:42.003Z,5.32
2023-04-15T17:45:09.916Z,5.57
2023-04-15T17:47:37.068Z,6.00
2023-04-15T17:50:04.597Z,5.88
2023-04-15T17:52:31.652Z,5.72
2023-04-15T17:54:59.009Z,6.05
2023-04-15T17:57:26.239Z,6.28
2023-04-15T17:59:53.347Z,6.70
2023-04-15T18:02:20.691Z,6.80
2023-04-15T18:04:48.085Z,6.90
2023-04-15T18:07:15.555Z,7.57
2023-04-15T18:09:44.256Z,6.70
2023-04-15T18:12:11.432Z,7.25
2023-04-15T18:14:38.636Z,7.80
2023-04-15T18:17:05.724Z,7.28
2023-04-15T18:19:32.985Z,7.03
2023-04-15T18:22:00.548Z,7.88
2023-04-15T18:24:28.410Z,7.80
2023-04-15T18:26:56.576Z,7.60
2023-04-15T18:29:23.904Z,7.85
2023-04-15T18:31:51.910Z,7.35
2023-04-15T18:34:19.031Z,7.50
2023-04-15T18:36:46.449Z,7.75
2023-04-15T18:39:13.532Z,8.20
2023-04-15T18:41:40.630Z,7.40
2023-04-15T18:44:07.879Z,7.93
2023-04-15T18:46:34.988Z,7.55
2023-04-15T18:49:04.200Z,7.65
2023-04-15T18:51:32.530Z,7.55
2023-04-15T18:53:59.619Z,7.95
2023-04-15T18:56:26.755Z,8.35
2023-04-15T18:59:08.848Z,9.25
2023-04-15T19:01:41.082Z,9.27
2023-04-15T19:04:09.436Z,9.02
2023-04-15T19:06:36.765Z,9.48
2023-04-15T19:09:04.281Z,9.68
2023-04-15T19:11:31.747Z,10.18
2023-04-15T19:13:58.893Z,9.57
2023-04-15T19:16:26.037Z,9.80
2023-04-15T19:18:53.074Z,9.60
2023-04-15T19:21:20.337Z,11.43
2023-04-15T19:23:48.168Z,10.00
2023-04-15T19:26:15.290Z,9.35
2023-04-15T19:28:42.350Z,9.45
2023-04-15T19:31:09.711Z,9.80
2023-04-15T19:33:36.885Z,8.95
2023-04-15T19:36:06.582Z,9.10
2023-04-15T19:38:36.008Z,9.02
2023-04-15T19:41:03.365Z,9.50
2023-04-15T19:43:32.686Z,10.25
2023-04-15T19:46:00.224Z,10.23
2023-04-15T19:48:27.497Z,10.68
2023-04-15T19:50:54.710Z,10.98
2023-04-15T19:53:21.829Z,12.13
2023-04-15T19:55:48.913Z,11.95
2023-04-15T19:58:16.549Z,13.02
2023-04-15T20:00:43.643Z,13.07
2023-04-15T20:03:10.953Z,14.07
2023-04-15T20:05:38.604Z,14.02
2023-04-15T20:08:05.731Z,14.43
2023-04-15T20:10:32.961Z,13.25
2023-04-15T20:13:00.235Z,14.68
2023-04-15T20:15:27.527Z,14.88
2023-04-15T20:17:54.955Z,15.18
2023-04-15T20:20:22.545Z,15.88
2023-04-15T20:22:49.707Z,16.15
2023-04-15T20:25:16.901Z,16.45
2023-04-15T20:27:44.372Z,16.88
2023-04-15T20:30:11.795Z,17.20
2023-04-15T20:32:39.058Z,17.55
2023-04-15T20:35:07.085Z,17.63
2023-04-15T20:37:34.248Z,17.77
2023-04-15T20:40:02.236Z,18.55
2023-04-15T20:42:34.451Z,17.85
2023-04-15T20:45:02.369Z,19.23
2023-04-15T20:47:29.985Z,19.38
2023-04-15T20:49:57.230Z,19.73
2023-04-15T20:52:24.353Z,20.00
2023-04-15T20:54:51.592Z,19.15
2023-04-15T20:57:20.057Z,20.25
2023-04-15T20:59:47.203Z,20.38
2023-04-15T21:02:14.399Z,20.52
2023-04-15T21:04:41.601Z,21.65
2023-04-15T21:07:09.686Z,21.75
2023-04-15T21:09:38.371Z,22.25
2023-04-15T21:12:05.458Z,22.50
2023-04-15T21:14:34.818Z,22.55
2023-04-15T21:17:10.857Z,23.65
2023-04-15T21:19:38.782Z,22.98
2023-04-15T21:22:06.032Z,22.85
2023-04-15T21:24:33.092Z,23.02
2023-04-15T21:27:01.868Z,24.13
2023-04-15T21:29:29.257Z,24.52
2023-04-15T21:31:56.496Z,24.60
2023-04-15T21:34:23.593Z,24.55
2023-04-15T21:36:50.620Z,24.50
2023-04-15T21:39:18.019Z,25.00
2023-04-15T21:41:45.084Z,25.77
2023-04-15T21:44:13.988Z,25.60
2023-04-15T21:46:45.783Z,26.20
2023-04-15T21:49:13.920Z,26.83
2023-04-15T21:51:40.988Z,26.23
2023-04-15T21:54:08.107Z,28.50
2023-04-15T21:56:35.514Z,26.73
2023-04-15T21:59:02.491Z,29.10
2023-04-15T22:01:30.741Z,28.80
2023-04-15T22:03:58.096Z,29.95
2023-04-15T22:06:25.424Z,29.23
2023-04-15T22:08:57.431Z,29.88
2023-04-15T22:11:28.834Z,29.83
2023-04-15T22:13:57.321Z,30.67
2023-04-15T22:16:28.551Z,31.13
2023-04-15T22:18:56.197Z,30.17
2023-04-15T22:21:23.751Z,31.20
2023-04-15T22:23:51.574Z,31.30
2023-04-15T22:26:18.817Z,32.47
2023-04-15T22:28:46.053Z,33.15
2023-04-15T22:31:13.680Z,32.80
2023-04-15T22:33:40.926Z,32.10
2023-04-15T22:36:08.100Z,33.13
2023-04-15T22:38:35.361Z,33.63
2023-04-15T22:41:02.419Z,33.45
2023-04-15T22:43:29.516Z,33.78
2023-04-15T22:45:56.757Z,32.97
2023-04-15T22:48:23.982Z,33.88
2023-04-15T22:50:51.277Z,34.17
2023-04-15T22:53:18.871Z,32.88
2023-04-15T22:55:47.563Z,33.33
2023-04-15T22:58:15.831Z,33.50
2023-04-15T23:00:43.008Z,35.05
2023-04-15T23:03:10.883Z,35.33
2023-04-15T23:05:40.063Z,33.95
2023-04-15T23:08:08.060Z,33.22
2023-04-15T23:10:35.473Z,33.72
2023-04-15T23:13:02.471Z,33.78
2023-04-15T23:15:29.526Z,37.10
2023-04-15T23:17:56.745Z,35.80
2023-04-15T23:20:23.913Z,35.55
2023-04-15T23:22:51.033Z,34.97
2023-04-15T23:25:19.455Z,36.17
2023-04-15T23:27:46.402Z,35.78
2023-04-15T23:30:13.539Z,34.00
2023-04-15T23:32:40.644Z,36.15
2023-04-15T23:35:08.343Z,35.65
2023-04-15T23:37:35.509Z,34.33
2023-04-15T23:40:02.659Z,35.88
2023-04-15T23:42:29.759Z,35.90
2023-04-15T23:44:56.810Z,37.20
2023-04-15T23:47:23.870Z,35.88
2023-04-15T23:49:52.001Z,36.70
2023-04-15T23:52:19.101Z,34.90
2023-04-15T23:54:46.180Z,37.17
2023-04-15T23:57:13.216Z,36.72
2023-04-15T23:59:40.686Z,36.35
